Wednesday, November 14, 2018, 1:47 AM EST
Back to Local

KMVL, Morrisville Stowe State Airport

Location: Morrisville, VT, United States Lat: 44.533
Local Time: 1:47 AM EST ( 6:47 GMT) Lon: -72.617
Time Zone: US/Eastern Elev: 731 ft

Show me the last for .
Show Decoded

2018-11-14 00:54 METAR KMVL 140554Z AUTO 06004KT 10SM BKN041 OVC049 M07/M13 A3006 RMK AO2 SLP191
                 60001 T10721128 10006 21072 50015 =
2018-11-13 23:54 METAR KMVL 140454Z AUTO 00000KT 10SM OVC040 M07/M13 A3007 RMK AO2 SLP194
                 T10671128 400221067 =
2018-11-13 22:54 METAR KMVL 140354Z AUTO VRB06KT 10SM BKN039 OVC046 M06/M13 A3004 RMK AO2 SLP184
                 T10561128 =
2018-11-13 21:54 METAR KMVL 140254Z AUTO 31009G16KT 10SM FEW036 OVC045 M04/M11 A3002 RMK AO2
                 UPE03 SLP175 P0000 60001 T10441111 51037 =
2018-11-13 20:54 METAR KMVL 140154Z AUTO 31012G30KT 260V350 8SM UP BKN036 BKN044 OVC055 M03/M09
                 A2998 RMK AO2 PK WND 32030/0152 UPB54SNE32B44E54 SLP164 P0000 T10331094 =
2018-11-13 20:34 METAR KMVL 140134Z AUTO 33008G20KT 280V020 9SM SCT025 BKN036 OVC055 M03/M08
                 A2997 RMK AO2 SNE32 P0000 T10281078 =
2018-11-13 19:54 METAR KMVL 140054Z AUTO 28007KT 230V320 6SM -SN BKN024 BKN031 OVC041 M02/M04
                 A2995 RMK AO2 PK WND 32028/2355 SLP151 P0001 T10171044 =
2018-11-13 18:54 METAR KMVL 132354Z AUTO 31019G30KT 6SM -SN BR BKN017 BKN023 OVC070 01/M02 A2991
                 RMK AO2 PK WND 33030/2353 UPE07RAB2255E2259SNB07 SLP136 P0003 60008 T00061017
                 10022 20006 53017 =
2018-11-13 18:16 METAR KMVL 132316Z AUTO 32011G20KT 3SM -SN BR BKN017 BKN029 OVC036 01/00 A2987
                 RMK AO2 UPE07RAB2255E2259SNB07 P0001 T00110000 =
2018-11-13 17:54 METAR KMVL 132254Z AUTO 32008KT 10SM UP FEW010 BKN033 OVC042 02/00 A2985 RMK AO2
                 UPE08B46SNB08E42 SLP118 P0001 T00220000 =
2018-11-13 17:46 METAR KMVL 132246Z AUTO 33004KT 9SM UP SCT010 BKN034 OVC044 02/01 A2986 RMK AO2
                 UPE08B46SNB08E42 P0001 T00170006 =
2018-11-13 17:20 METAR KMVL 132220Z AUTO 17004KT 4SM -SN BR FEW007 OVC012 01/01 A2985 RMK AO2
                 UPE08SNB08 P0001 T00060006 =
2018-11-13 16:54 METAR KMVL 132154Z AUTO 00000KT 8SM UP BKN014 OVC019 01/01 A2987 RMK AO2 UPB51
                 SLP123 P0000 T00060006 =
2018-11-13 15:54 METAR KMVL 132054Z AUTO 00000KT 9SM FEW003 OVC019 01/01 A2985 RMK AO2 SLP119
                 60004 T00060006 56011 =
2018-11-13 15:19 METAR KMVL 132019Z AUTO 22003KT 7SM SCT005 OVC017 01/01 A2986 RMK AO2 T00060006
                 =
2018-11-13 14:54 METAR KMVL 131954Z AUTO 00000KT 10SM BKN005 OVC019 01/01 A2986 RMK AO2 CIG
                 002V009 SLP119 P0002 T00060006 =
2018-11-13 14:46 METAR KMVL 131946Z AUTO 00000KT 10SM BKN003 BKN017 OVC024 01/01 A2986 RMK AO2
                 P0002 T00060006 =
2018-11-13 14:16 METAR KMVL 131916Z AUTO 00000KT 7SM OVC005 01/01 A2987 RMK AO2 P0001 T00060006 =
2018-11-13 13:54 METAR KMVL 131854Z AUTO 00000KT 7SM OVC006 01/01 A2988 RMK AO2 SNE26B45E51
                 SLP128 P0002 T00060006 =
2018-11-13 13:26 METAR KMVL 131826Z AUTO 00000KT 5SM BR OVC006 01/01 A2989 RMK AO2 SNE26 CIG
                 002V009 P0001 T00060006 =
2018-11-13 13:13 METAR KMVL 131813Z AUTO 00000KT 4SM -SN BR BKN004 OVC009 01/01 A2989 RMK AO2 CIG
                 002V007 P0001 T00060006 =
2018-11-13 12:57 METAR KMVL 131757Z AUTO 33003KT 2SM -SN BR BKN003 BKN009 OVC013 01/01 A2989 RMK
                 AO2 CIG 002V005 P0000 T00060006 =
2018-11-13 12:54 METAR KMVL 131754Z AUTO 33003KT 1 3/4SM -SN BR BKN005 BKN009 OVC014 01/01 A2989
                 RMK AO2 CIG 002V007 SLP131 P0001 60002 T00060006 10006 20000 57042 =
2018-11-13 12:43 METAR KMVL 131743Z AUTO 32003KT 1 1/4SM -SN BR FEW004 OVC012 01/01 A2990 RMK AO2
                 P0001 T00060006 =
2018-11-13 12:29 METAR KMVL 131729Z AUTO 00000KT 1/2SM SN FG SCT004 OVC010 01/01 A2991 RMK AO2
                 P0001 T00060006 =
2018-11-13 12:26 METAR KMVL 131726Z AUTO 00000KT 1/2SM SN FG BKN004 BKN009 OVC013 01/01 A2991 RMK
                 AO2 P0001 T00060006 =
2018-11-13 12:19 METAR KMVL 131719Z AUTO 00000KT 1SM -SN BR BKN004 OVC009 01/01 A2993 RMK AO2
                 P0001 T00060006 =
2018-11-13 11:54 METAR KMVL 131654Z AUTO 00000KT 1 1/2SM -SN BR BKN003 OVC020 01/01 A2993 RMK AO2
                 SLP144 P0001 T00060006 =
2018-11-13 11:12 METAR KMVL 131612Z AUTO 00000KT 1SM -SN BR BKN003 OVC014 00/00 A2995 RMK AO2
                 P0001 T00000000 $ =
2018-11-13 10:54 METAR KMVL 131554Z AUTO 00000KT 3/4SM -SN BR FEW007 OVC013 00/00 A2997 RMK AO2
                 SLP160 P0000 T00000000 =
2018-11-13 10:29 METAR KMVL 131529Z AUTO 00000KT 1/2SM SN FG BKN013 OVC018 00/00 A2999 RMK AO2
                 P0000 T00000000 =
2018-11-13 10:05 METAR KMVL 131505Z AUTO 00000KT 3/4SM -SN BR VV017 00/00 A3001 RMK AO2 P0000
                 T00000000 =
2018-11-13 09:54 METAR KMVL 131454Z AUTO 00000KT 3/4SM -SN BR FEW002 FEW008 OVC014 00/00 A3001
                 RMK AO2 SLP173 P0000 60000 T00000000 58034 =
2018-11-13 08:54 METAR KMVL 131354Z AUTO 00000KT 3/4SM -SN BR SCT003 OVC011 00/00 A3007 RMK AO2
                 SLP191 P0000 T00000000 =
2018-11-13 08:46 METAR KMVL 131346Z AUTO 00000KT 1/2SM SN FG FEW003 OVC011 00/00 A3007 RMK AO2
                 P0000 T00000000 =
2018-11-13 07:54 METAR KMVL 131254Z AUTO 00000KT 1/2SM SN FG FEW004 OVC008 00/00 A3011 RMK AO2
                 SLP206 P0000 T00000000 =
2018-11-13 07:17 METAR KMVL 131217Z AUTO 00000KT 1/2SM SN FG VV007 00/00 A3012 RMK AO2 P0000
                 T00000000 =
2018-11-13 06:54 METAR KMVL 131154Z AUTO 00000KT 1SM -SN BR FEW004 OVC008 00/00 A3012 RMK AO2
                 SLP208 P0000 60000 T00000000 10000 20000 56024 =
2018-11-13 05:54 METAR KMVL 131054Z AUTO 00000KT 1/2SM SN FG VV008 00/00 A3014 RMK AO2 SLP217
                 P0000 T00000000 =
2018-11-13 05:42 METAR KMVL 131042Z AUTO 00000KT 1/2SM SN FG VV008 00/00 A3014 RMK AO2 P0000
                 T00000000 =
2018-11-13 05:23 METAR KMVL 131023Z AUTO 00000KT 3/4SM -SN BR FEW008 OVC012 00/00 A3015 RMK AO2
                 P0000 T00000000 =
2018-11-13 05:13 METAR KMVL 131013Z AUTO 00000KT 1SM -SN BR FEW002 OVC014 00/00 A3016 RMK AO2
                 P0000 T00000000 =
2018-11-13 05:01 METAR KMVL 131001Z AUTO 00000KT 1 1/2SM -SN BR FEW003 BKN020 OVC025 00/00 A3016
                 RMK AO2 P0000 T00000000 =
2018-11-13 04:54 METAR KMVL 130954Z AUTO 00000KT 2SM -SN BR SCT003 SCT017 OVC023 00/00 A3015 RMK
                 AO2 SLP220 P0000 T00000000 =
2018-11-13 04:43 METAR KMVL 130943Z AUTO 00000KT 2 1/2SM -SN BR FEW003 BKN025 OVC031 00/00 A3016
                 RMK AO2 P0000 T00000000 =
2018-11-13 04:41 METAR KMVL 130941Z AUTO 00000KT 3SM -SN BR FEW019 SCT025 OVC031 00/00 A3016 RMK
                 AO2 P0000 T00000000 =
2018-11-13 04:13 METAR KMVL 130913Z AUTO 00000KT 2SM -SN BR OVC029 00/00 A3018 RMK AO2 P0000
                 T00000000 =
2018-11-13 03:54 METAR KMVL 130854Z AUTO 00000KT 2SM -SN BR FEW027 OVC039 00/00 A3019 RMK AO2
                 SLP232 P0000 60000 T00000000 56020 =
2018-11-13 03:37 METAR KMVL 130837Z AUTO 00000KT 2SM -SN BR FEW028 OVC049 00/00 A3020 RMK AO2
                 P0000 T00000000 =
2018-11-13 03:24 METAR KMVL 130824Z AUTO 00000KT 4SM -SN BR FEW023 SCT028 OVC047 00/00 A3021 RMK
                 AO2 P0000 T00000000 TSNO =
2018-11-13 03:17 METAR KMVL 130817Z AUTO 00000KT 2 1/2SM -SN BR FEW002 SCT028 OVC049 00/00 A3021
                 RMK AO2 P0000 T00000000 =
2018-11-13 03:06 METAR KMVL 130806Z AUTO 00000KT 1 1/2SM -SN BR SCT002 OVC024 00/00 A3021 RMK AO2
                 P0000 T00000000 =
2018-11-13 02:54 METAR KMVL 130754Z AUTO 00000KT 1 1/2SM -SN BR BKN002 BKN015 OVC024 00/00 A3022
                 RMK AO2 SLP242 P0000 T00000000 =
2018-11-13 02:41 METAR KMVL 130741Z AUTO 00000KT 2 1/2SM -SN BR BKN002 BKN009 OVC020 00/00 A3024
                 RMK AO2 P0000 T00000000 =
2018-11-13 02:33 METAR KMVL 130733Z AUTO 00000KT 4SM -SN BR SCT002 BKN009 OVC022 00/00 A3023 RMK
                 AO2 P0000 T00000000 =
2018-11-13 02:26 METAR KMVL 130726Z AUTO 00000KT 4SM -SN BR FEW002 BKN010 OVC024 00/00 A3023 RMK
                 AO2 P0000 T00000000 =
2018-11-13 02:17 METAR KMVL 130717Z AUTO 00000KT 2SM -SN BR BKN010 OVC024 00/00 A3024 RMK AO2
                 P0000 T00000000 =
2018-11-13 01:54 METAR KMVL 130654Z AUTO 00000KT 1 1/2SM -SN BR FEW011 BKN018 OVC026 00/00 A3025
                 RMK AO2 SLP251 P0000 T00000000 =

Support USWX by starting your Amazon purchase here.